createdAt,value
2018-07-09T00:01:09.143Z,2.90
2018-07-09T00:03:37.646Z,3.05
2018-07-09T00:06:06.303Z,3.10
2018-07-09T00:08:34.844Z,3.20
2018-07-09T00:11:07.186Z,3.00
2018-07-09T00:13:36.868Z,2.92
2018-07-09T00:16:05.347Z,3.12
2018-07-09T00:18:33.853Z,2.87
2018-07-09T00:21:02.331Z,2.80
2018-07-09T00:23:31.103Z,2.65
2018-07-09T00:25:59.585Z,3.40
2018-07-09T00:28:28.083Z,3.12
2018-07-09T00:30:56.537Z,2.83
2018-07-09T00:33:25.013Z,3.07
2018-07-09T00:35:53.441Z,3.08
2018-07-09T00:38:21.917Z,2.90
2018-07-09T00:40:50.873Z,3.27
2018-07-09T00:43:19.287Z,3.05
2018-07-09T00:45:47.755Z,3.10
2018-07-09T00:48:16.197Z,3.02
2018-07-09T00:50:44.650Z,3.05
2018-07-09T00:53:13.009Z,3.00
2018-07-09T00:55:41.627Z,2.87
2018-07-09T00:58:15.317Z,3.00
2018-07-09T01:00:43.826Z,2.87
2018-07-09T01:03:12.531Z,3.10
2018-07-09T01:05:41.001Z,2.92
2018-07-09T01:08:09.591Z,3.12
2018-07-09T01:10:49.273Z,2.80
2018-07-09T01:13:20.156Z,3.10
2018-07-09T01:15:48.683Z,2.65
2018-07-09T01:18:17.418Z,2.80
2018-07-09T01:20:45.911Z,2.90
2018-07-09T01:23:14.857Z,2.98
2018-07-09T01:25:43.376Z,2.80
2018-07-09T01:28:12.024Z,2.98
2018-07-09T01:30:40.737Z,3.10
2018-07-09T01:33:09.180Z,2.87
2018-07-09T01:35:37.699Z,3.10
2018-07-09T01:38:06.585Z,2.72
2018-07-09T01:40:35.279Z,3.00
2018-07-09T01:43:03.697Z,2.72
2018-07-09T01:45:32.119Z,2.95
2018-07-09T01:48:00.570Z,2.93
2018-07-09T01:50:29.205Z,2.90
2018-07-09T01:52:57.637Z,2.80
2018-07-09T01:55:26.135Z,2.95
2018-07-09T01:57:54.681Z,3.00
2018-07-09T02:00:23.134Z,2.50
2018-07-09T02:02:51.645Z,2.80
2018-07-09T02:05:20.249Z,2.50
2018-07-09T02:07:48.817Z,2.58
2018-07-09T02:10:19.151Z,2.80
2018-07-09T02:12:47.962Z,2.70
2018-07-09T02:15:16.619Z,2.83
2018-07-09T02:18:03.943Z,2.70
2018-07-09T02:20:33.078Z,2.50
2018-07-09T02:23:02.540Z,2.70
2018-07-09T02:25:31.125Z,2.80
2018-07-09T02:28:13.219Z,2.62
2018-07-09T02:30:41.718Z,2.77
2018-07-09T02:33:11.781Z,2.87
2018-07-09T02:35:40.288Z,2.80
2018-07-09T02:38:14.559Z,2.85
2018-07-09T02:40:43.618Z,2.50
2018-07-09T02:43:12.122Z,2.60
2018-07-09T02:45:40.730Z,2.92
2018-07-09T02:48:09.458Z,2.65
2018-07-09T02:50:38.976Z,2.60
2018-07-09T02:53:07.822Z,2.43
2018-07-09T02:55:36.844Z,2.75
2018-07-09T02:58:05.638Z,2.75
2018-07-09T03:00:34.580Z,2.40
2018-07-09T03:03:03.709Z,2.60
2018-07-09T03:05:32.650Z,2.58
2018-07-09T03:08:01.326Z,2.37
2018-07-09T03:10:30.023Z,2.70
2018-07-09T03:12:58.728Z,2.53
2018-07-09T03:15:27.744Z,2.52
2018-07-09T03:17:56.354Z,2.50
2018-07-09T03:20:24.996Z,2.55
2018-07-09T03:22:53.516Z,2.50
2018-07-09T03:25:22.198Z,2.52
2018-07-09T03:27:51.318Z,2.50
2018-07-09T03:30:20.027Z,2.52
2018-07-09T03:32:48.784Z,2.30
2018-07-09T03:35:17.752Z,2.40
2018-07-09T03:37:51.562Z,2.40
2018-07-09T03:40:20.192Z,2.15
2018-07-09T03:42:49.066Z,2.17
2018-07-09T03:45:17.854Z,2.50
2018-07-09T03:47:46.631Z,2.40
2018-07-09T03:50:15.345Z,2.37
2018-07-09T03:52:43.940Z,2.50
2018-07-09T03:55:12.828Z,2.22
2018-07-09T03:57:41.546Z,2.22
2018-07-09T04:00:10.227Z,2.13
2018-07-09T04:02:38.880Z,2.30
2018-07-09T04:05:07.506Z,2.50
2018-07-09T04:07:36.152Z,2.50
2018-07-09T04:10:04.724Z,2.33
2018-07-09T04:12:33.808Z,2.50
2018-07-09T04:15:02.456Z,2.30
2018-07-09T04:17:32.159Z,2.55
2018-07-09T04:20:01.017Z,2.30
2018-07-09T04:22:30.838Z,2.20
2018-07-09T04:24:59.484Z,2.50
2018-07-09T04:27:28.169Z,2.30
2018-07-09T04:29:56.907Z,2.30
2018-07-09T04:32:26.034Z,2.47
2018-07-09T04:34:54.892Z,2.30
2018-07-09T04:37:23.592Z,2.42
2018-07-09T04:39:52.252Z,2.37
2018-07-09T04:42:20.860Z,2.40
2018-07-09T04:44:50.108Z,2.60
2018-07-09T04:47:19.077Z,2.60
2018-07-09T04:49:48.064Z,2.52
2018-07-09T04:52:16.534Z,2.75
2018-07-09T04:54:45.080Z,2.90
2018-07-09T04:57:13.754Z,2.60
2018-07-09T04:59:42.126Z,2.95
2018-07-09T05:02:10.921Z,2.70
2018-07-09T05:04:39.406Z,3.10
2018-07-09T05:07:08.325Z,2.80
2018-07-09T05:09:37.832Z,3.10
2018-07-09T05:12:06.709Z,3.07
2018-07-09T05:14:35.260Z,2.72
2018-07-09T05:17:04.018Z,2.67
2018-07-09T05:19:32.504Z,2.67
2018-07-09T05:22:01.041Z,3.15
2018-07-09T05:24:29.622Z,2.60
2018-07-09T05:26:58.090Z,2.90
2018-07-09T05:29:26.662Z,2.67
2018-07-09T05:31:55.141Z,2.80
2018-07-09T05:34:23.750Z,2.90
2018-07-09T05:36:52.336Z,2.47
2018-07-09T05:39:21.151Z,3.10
2018-07-09T05:41:49.668Z,4.72
2018-07-09T05:44:18.362Z,3.10
2018-07-09T05:46:47.158Z,3.20
2018-07-09T05:49:15.568Z,3.20
2018-07-09T05:51:44.088Z,3.12
2018-07-09T05:54:12.665Z,4.55
2018-07-09T05:56:41.372Z,4.45
2018-07-09T05:59:09.975Z,3.02
2018-07-09T06:01:38.403Z,3.40
2018-07-09T06:04:06.901Z,3.22
2018-07-09T06:06:35.422Z,2.90
2018-07-09T06:09:04.684Z,3.20
2018-07-09T06:11:33.199Z,4.40
2018-07-09T06:14:02.059Z,4.60
2018-07-09T06:16:30.530Z,3.25
2018-07-09T06:18:59.646Z,3.37
2018-07-09T06:21:28.349Z,3.52
2018-07-09T06:23:56.833Z,3.70
2018-07-09T06:26:25.383Z,4.20
2018-07-09T06:28:54.287Z,3.45
2018-07-09T06:31:22.795Z,4.10
2018-07-09T06:33:51.218Z,3.80
2018-07-09T06:36:19.664Z,4.40
2018-07-09T06:38:53.261Z,3.55
2018-07-09T06:41:21.765Z,3.30
2018-07-09T06:43:50.303Z,3.40
2018-07-09T06:46:18.880Z,3.10
2018-07-09T06:48:47.456Z,3.30
2018-07-09T06:51:15.955Z,3.10
2018-07-09T06:53:44.449Z,3.10
2018-07-09T06:56:12.933Z,3.10
2018-07-09T06:58:50.795Z,3.60
2018-07-09T07:01:19.802Z,3.95
2018-07-09T07:03:48.511Z,3.98
2018-07-09T07:06:17.072Z,3.40
2018-07-09T07:08:45.853Z,3.17
2018-07-09T07:11:14.435Z,3.00
2018-07-09T07:13:43.035Z,2.90
2018-07-09T07:16:11.692Z,2.60
2018-07-09T07:18:45.470Z,3.00
2018-07-09T07:21:14.174Z,2.70
2018-07-09T07:23:42.867Z,2.83
2018-07-09T07:26:11.264Z,2.87
2018-07-09T07:28:39.844Z,2.60
2018-07-09T07:31:08.457Z,2.65
2018-07-09T07:33:37.233Z,3.07
2018-07-09T07:36:05.850Z,2.60
2018-07-09T07:38:34.333Z,2.87
2018-07-09T07:41:02.765Z,2.87
2018-07-09T07:43:31.347Z,2.90
2018-07-09T07:45:59.855Z,2.70
2018-07-09T07:48:28.422Z,2.40
2018-07-09T07:50:57.090Z,3.10
2018-07-09T07:53:26.200Z,2.80
2018-07-09T07:55:54.793Z,2.83
2018-07-09T07:58:23.553Z,2.70
2018-07-09T08:00:52.152Z,2.95
2018-07-09T08:03:20.782Z,2.80
2018-07-09T08:05:49.323Z,2.77
2018-07-09T08:08:18.019Z,2.37
2018-07-09T08:10:46.567Z,2.67
2018-07-09T08:13:27.982Z,2.60
2018-07-09T08:15:43.619Z,2.98
2018-07-09T08:18:12.465Z,3.25
2018-07-09T08:20:41.223Z,3.05
2018-07-09T08:23:09.763Z,3.12
2018-07-09T08:25:38.573Z,3.00
2018-07-09T08:28:07.037Z,3.02
2018-07-09T08:30:36.066Z,2.83
2018-07-09T08:33:04.554Z,3.12
2018-07-09T08:35:33.142Z,2.97
2018-07-09T08:38:01.812Z,3.05
2018-07-09T08:40:30.219Z,2.92
2018-07-09T08:42:58.689Z,3.27
2018-07-09T08:45:27.291Z,2.97
2018-07-09T08:48:00.819Z,3.00
2018-07-09T08:50:29.309Z,3.10
2018-07-09T08:52:57.833Z,3.20
2018-07-09T08:55:26.379Z,3.40
2018-07-09T08:57:55.079Z,3.35
2018-07-09T09:00:23.599Z,3.27
2018-07-09T09:02:52.646Z,2.70
2018-07-09T09:05:21.123Z,2.75
2018-07-09T09:07:49.727Z,2.40
2018-07-09T09:10:18.397Z,2.70
2018-07-09T09:12:47.033Z,2.60
2018-07-09T09:15:15.843Z,2.42
2018-07-09T09:17:44.539Z,2.25
2018-07-09T09:20:13.055Z,2.45
2018-07-09T09:22:41.526Z,2.12
2018-07-09T09:25:10.005Z,2.20
2018-07-09T09:27:38.460Z,2.40
2018-07-09T09:30:07.051Z,2.50
2018-07-09T09:32:35.832Z,2.45
2018-07-09T09:35:04.389Z,2.20
2018-07-09T09:37:33.009Z,3.40
2018-07-09T09:40:01.449Z,4.47
2018-07-09T09:42:29.996Z,4.08
2018-07-09T09:44:58.787Z,2.73
2018-07-09T09:47:27.515Z,2.90
2018-07-09T09:49:56.195Z,3.10
2018-07-09T09:52:24.535Z,3.67
2018-07-09T09:54:53.418Z,3.77
2018-07-09T09:57:22.059Z,4.23
2018-07-09T09:59:50.949Z,3.00
2018-07-09T10:02:19.674Z,2.50
2018-07-09T10:04:48.123Z,2.50
2018-07-09T10:07:21.705Z,2.10
2018-07-09T10:09:50.139Z,2.50
2018-07-09T10:12:19.368Z,2.70
2018-07-09T10:14:47.811Z,2.87
2018-07-09T10:17:17.409Z,2.33
2018-07-09T10:19:46.303Z,2.12
2018-07-09T10:22:14.838Z,2.20
2018-07-09T10:24:43.389Z,3.30
2018-07-09T10:27:12.593Z,4.40
2018-07-09T10:29:41.407Z,2.55
2018-07-09T10:32:10.673Z,2.20
2018-07-09T10:34:40.257Z,2.50
2018-07-09T10:37:09.031Z,2.47
2018-07-09T10:39:42.815Z,2.98
2018-07-09T10:42:13.514Z,2.42
2018-07-09T10:44:42.105Z,2.02
2018-07-09T10:47:10.805Z,1.60
2018-07-09T10:49:40.113Z,1.60
2018-07-09T10:52:11.207Z,2.03
2018-07-09T10:54:41.093Z,2.00
2018-07-09T10:57:10.257Z,2.58
2018-07-09T10:59:39.255Z,2.07
2018-07-09T11:02:07.991Z,1.72
2018-07-09T11:04:41.414Z,1.63
2018-07-09T11:07:10.216Z,1.75
2018-07-09T11:09:39.904Z,1.75
2018-07-09T11:12:09.682Z,1.60
2018-07-09T11:14:38.455Z,1.62
2018-07-09T11:17:07.259Z,1.40
2018-07-09T11:19:40.609Z,1.55
2018-07-09T11:22:09.356Z,1.40
2018-07-09T11:24:38.344Z,1.57
2018-07-09T11:27:08.788Z,1.50
2018-07-09T11:29:37.880Z,1.47
2018-07-09T11:32:07.537Z,1.90
2018-07-09T11:34:36.077Z,1.87
2018-07-09T11:37:04.609Z,2.00
2018-07-09T11:39:33.177Z,1.90
2018-07-09T11:42:02.589Z,1.95
2018-07-09T11:44:31.335Z,2.35
2018-07-09T11:49:53.641Z,1.90
2018-07-09T11:52:22.301Z,1.30
2018-07-09T11:54:51.046Z,2.17
2018-07-09T11:57:33.383Z,2.17
2018-07-09T12:00:02.378Z,1.67
2018-07-09T12:02:32.775Z,1.45
2018-07-09T12:05:01.375Z,1.90
2018-07-09T12:07:43.559Z,1.67
2018-07-09T12:10:12.590Z,1.77
2018-07-09T12:12:41.196Z,1.60
2018-07-09T12:15:09.663Z,2.00
2018-07-09T12:17:38.241Z,1.62
2018-07-09T12:20:06.791Z,1.75
2018-07-09T12:22:36.577Z,1.67
2018-07-09T12:25:10.366Z,1.70
2018-07-09T12:27:44.105Z,1.70
2018-07-09T12:30:13.529Z,1.60
2018-07-09T12:32:42.013Z,1.70
2018-07-09T12:35:10.900Z,1.60
2018-07-09T12:37:39.616Z,1.60
2018-07-09T12:40:08.211Z,1.50
2018-07-09T12:42:36.811Z,1.52
2018-07-09T12:45:06.218Z,1.75
2018-07-09T12:47:40.010Z,1.67
2018-07-09T12:50:08.728Z,1.90
2018-07-09T12:52:37.309Z,2.70
2018-07-09T12:55:05.914Z,2.50
2018-07-09T12:57:48.121Z,2.40
2018-07-09T13:00:17.107Z,1.90
2018-07-09T13:02:45.873Z,1.90
2018-07-09T13:05:14.370Z,2.35
2018-07-09T13:07:42.961Z,2.20
2018-07-09T13:10:11.531Z,2.00
2018-07-09T13:12:40.401Z,2.00
2018-07-09T13:15:08.930Z,1.93
2018-07-09T13:17:37.837Z,2.70
2018-07-09T13:20:06.347Z,3.00
2018-07-09T13:22:35.281Z,2.30
2018-07-09T13:25:03.863Z,2.10
2018-07-09T13:30:47.753Z,2.00
2018-07-09T13:33:16.283Z,1.90
2018-07-09T13:35:44.921Z,1.80
2018-07-09T13:38:13.730Z,2.00
2018-07-09T13:40:43.559Z,3.00
2018-07-09T13:43:12.109Z,2.30
2018-07-09T13:45:40.491Z,1.90
2018-07-09T13:48:09.424Z,1.80
2018-07-09T13:50:38.141Z,2.10
2018-07-09T13:53:06.749Z,2.05
2018-07-09T13:55:35.309Z,2.40
2018-07-09T13:58:03.925Z,3.50
2018-07-09T14:00:32.465Z,2.42
2018-07-09T14:03:00.925Z,1.80
2018-07-09T14:05:29.352Z,2.03
2018-07-09T14:07:57.875Z,2.10
2018-07-09T14:10:26.312Z,1.90
2018-07-09T14:12:54.709Z,1.70
2018-07-09T14:15:23.067Z,1.73
2018-07-09T14:17:51.571Z,1.87
2018-07-09T14:20:28.366Z,1.97
2018-07-09T14:22:56.988Z,1.80
2018-07-09T14:25:25.467Z,1.90
2018-07-09T14:27:54.221Z,2.52
2018-07-09T14:30:22.722Z,2.73
2018-07-09T14:32:51.116Z,2.50
2018-07-09T14:35:19.539Z,1.90
2018-07-09T14:37:48.201Z,1.73
2018-07-09T14:40:16.745Z,1.90
2018-07-09T14:42:45.210Z,2.00
2018-07-09T14:45:13.590Z,2.00
2018-07-09T14:47:41.999Z,2.20
2018-07-09T14:50:10.426Z,2.12
2018-07-09T14:52:38.971Z,2.20
2018-07-09T14:55:07.508Z,2.00
2018-07-09T14:57:36.069Z,2.17
2018-07-09T15:00:05.165Z,2.20
2018-07-09T15:02:33.579Z,2.20
2018-07-09T15:05:01.994Z,2.10
2018-07-09T15:07:30.552Z,2.10
2018-07-09T15:09:58.973Z,2.22
2018-07-09T15:12:27.411Z,2.40
2018-07-09T15:14:55.852Z,2.20
2018-07-09T15:17:24.331Z,2.20
2018-07-09T15:19:52.851Z,2.70
2018-07-09T15:22:21.920Z,3.90
2018-07-09T15:24:50.411Z,3.55
2018-07-09T15:27:18.870Z,2.75
2018-07-09T15:29:47.303Z,2.70
2018-07-09T15:32:22.372Z,3.45
2018-07-09T15:34:50.839Z,3.10
2018-07-09T15:37:19.299Z,3.22
2018-07-09T15:39:47.743Z,2.77
2018-07-09T15:42:16.149Z,2.60
2018-07-09T15:44:44.581Z,3.67
2018-07-09T15:47:13.009Z,3.40
2018-07-09T15:49:42.105Z,2.80
2018-07-09T15:52:13.006Z,3.02
2018-07-09T15:54:41.405Z,4.00
2018-07-09T15:57:09.830Z,2.77
2018-07-09T15:59:38.515Z,3.25
2018-07-09T16:02:07.021Z,2.92
2018-07-09T16:04:35.469Z,2.87
2018-07-09T16:07:03.955Z,2.72
2018-07-09T16:09:32.410Z,2.70
2018-07-09T16:12:00.761Z,2.50
2018-07-09T16:14:29.201Z,2.70
2018-07-09T16:16:57.642Z,2.70
2018-07-09T16:19:25.964Z,2.77
2018-07-09T16:21:54.456Z,3.10
2018-07-09T16:24:22.872Z,3.10
2018-07-09T16:26:51.294Z,2.92
2018-07-09T16:29:19.767Z,3.10
2018-07-09T16:31:48.194Z,3.20
2018-07-09T16:34:16.636Z,2.85
2018-07-09T16:36:45.040Z,3.08
2018-07-09T16:39:13.508Z,2.90
2018-07-09T16:41:41.977Z,3.15
2018-07-09T16:44:11.357Z,3.10
2018-07-09T16:46:40.440Z,3.20
2018-07-09T16:49:18.649Z,3.00
2018-07-09T16:51:48.405Z,3.00
2018-07-09T16:54:18.687Z,3.30
2018-07-09T16:56:47.952Z,3.20
2018-07-09T16:59:17.025Z,3.35
2018-07-09T17:01:46.725Z,2.85
2018-07-09T17:04:15.624Z,3.22
2018-07-09T17:06:44.403Z,2.80
2018-07-09T17:09:13.404Z,2.95
2018-07-09T17:11:43.881Z,2.90
2018-07-09T17:14:13.335Z,2.70
2018-07-09T17:16:50.833Z,2.92
2018-07-09T17:19:20.060Z,2.60
2018-07-09T17:21:57.013Z,2.77
2018-07-09T17:24:26.708Z,2.92
2018-07-09T17:26:56.170Z,3.00
2018-07-09T17:29:26.135Z,2.80
2018-07-09T17:31:55.564Z,3.37
2018-07-09T17:34:24.315Z,2.72
2018-07-09T17:36:53.331Z,2.85
2018-07-09T17:39:22.239Z,2.75
2018-07-09T17:41:56.329Z,2.60
2018-07-09T17:44:25.395Z,2.58
2018-07-09T17:49:56.412Z,2.60
2018-07-09T17:52:25.002Z,2.52
2018-07-09T17:54:54.093Z,2.20
2018-07-09T17:57:22.825Z,2.60
2018-07-09T17:59:52.168Z,3.07
2018-07-09T18:04:57.062Z,3.77
2018-07-09T18:07:25.653Z,3.83
2018-07-09T18:09:54.269Z,4.35
2018-07-09T18:12:23.209Z,2.87
2018-07-09T18:14:52.257Z,2.42
2018-07-09T18:17:21.455Z,2.80
2018-07-09T18:19:50.071Z,2.67
2018-07-09T18:22:18.644Z,2.60
2018-07-09T18:24:47.574Z,2.90
2018-07-09T18:27:16.186Z,2.80
2018-07-09T18:29:44.964Z,3.35
2018-07-09T18:32:13.665Z,3.27
2018-07-09T18:34:42.545Z,3.17
2018-07-09T18:37:17.259Z,3.40
2018-07-09T18:39:45.991Z,2.50
2018-07-09T18:42:16.108Z,3.90
2018-07-09T18:44:45.406Z,3.20
2018-07-09T18:47:14.286Z,3.00
2018-07-09T18:49:43.757Z,2.83
2018-07-09T18:52:14.100Z,2.90
2018-07-09T18:54:43.607Z,3.57
2018-07-09T18:57:31.031Z,3.17
2018-07-09T18:59:59.723Z,3.23
2018-07-09T19:02:28.605Z,2.95
2018-07-09T19:04:57.280Z,2.90
2018-07-09T19:07:28.270Z,2.85
2018-07-09T19:09:57.078Z,3.00
2018-07-09T19:12:29.918Z,2.90
2018-07-09T19:14:58.907Z,3.00
2018-07-09T19:18:05.703Z,3.02
2018-07-09T19:20:45.502Z,2.53
2018-07-09T19:23:13.766Z,2.90
2018-07-09T19:25:41.280Z,3.12
2018-07-09T19:28:13.955Z,2.70
2018-07-09T19:30:41.678Z,2.75
2018-07-09T19:33:09.038Z,2.60
2018-07-09T19:35:36.536Z,2.30
2018-07-09T19:38:04.239Z,2.80
2018-07-09T19:40:35.362Z,3.33
2018-07-09T19:43:02.973Z,5.42
2018-07-09T19:45:30.322Z,5.30
2018-07-09T19:48:08.033Z,3.22
2018-07-09T19:50:36.620Z,2.73
2018-07-09T19:53:05.181Z,2.58
2018-07-09T19:55:34.923Z,2.42
2018-07-09T19:58:03.757Z,2.17
2018-07-09T20:00:32.726Z,2.40
2018-07-09T20:03:00.953Z,2.17
2018-07-09T20:05:28.598Z,2.47
2018-07-09T20:07:55.974Z,2.58
2018-07-09T20:10:28.443Z,2.40
2018-07-09T20:15:03.926Z,2.02
2018-07-09T20:17:35.281Z,2.60
2018-07-09T20:20:02.536Z,2.27
2018-07-09T20:22:29.870Z,2.30
2018-07-09T20:24:57.442Z,2.00
2018-07-09T20:27:24.656Z,2.08
2018-07-09T20:29:52.869Z,2.00
2018-07-09T20:32:20.831Z,1.87
2018-07-09T20:34:48.138Z,2.00
2018-07-09T20:37:15.333Z,2.15
2018-07-09T20:39:42.753Z,2.35
2018-07-09T20:42:09.944Z,1.90
2018-07-09T20:44:37.483Z,2.15
2018-07-09T20:47:04.731Z,2.58
2018-07-09T20:49:33.089Z,2.60
2018-07-09T20:52:00.685Z,2.47
2018-07-09T20:54:29.613Z,2.42
2018-07-09T20:56:58.439Z,2.50
2018-07-09T20:59:26.284Z,2.30
2018-07-09T21:01:53.802Z,2.47
2018-07-09T21:04:28.936Z,2.70
2018-07-09T21:06:57.615Z,2.60
2018-07-09T21:09:25.395Z,3.08
2018-07-09T21:11:53.025Z,2.33
2018-07-09T21:14:20.376Z,2.50
2018-07-09T21:16:48.069Z,2.15
2018-07-09T21:19:25.226Z,2.20
2018-07-09T21:21:52.942Z,2.50
2018-07-09T21:24:20.258Z,2.25
2018-07-09T21:26:48.007Z,2.02
2018-07-09T21:32:08.751Z,2.17
2018-07-09T21:34:37.130Z,2.00
2018-07-09T21:37:05.097Z,1.92
2018-07-09T21:39:32.709Z,1.80
2018-07-09T21:42:00.531Z,2.20
2018-07-09T21:44:27.988Z,2.50
2018-07-09T21:46:57.611Z,2.10
2018-07-09T21:49:25.364Z,1.92
2018-07-09T21:51:53.720Z,1.98
2018-07-09T21:54:20.963Z,2.02
2018-07-09T21:56:48.715Z,1.85
2018-07-09T21:59:16.154Z,1.77
2018-07-09T22:01:43.625Z,2.33
2018-07-09T22:04:11.157Z,2.05
2018-07-09T22:06:38.838Z,2.15
2018-07-09T22:09:06.143Z,2.47
2018-07-09T22:11:34.046Z,1.95
2018-07-09T22:14:01.568Z,1.75
2018-07-09T22:16:28.931Z,1.95
2018-07-09T22:18:56.404Z,2.30
2018-07-09T22:21:23.773Z,2.05
2018-07-09T22:23:51.036Z,1.90
2018-07-09T22:26:19.291Z,1.65
2018-07-09T22:28:46.792Z,2.08
2018-07-09T22:31:15.981Z,1.85
2018-07-09T22:33:44.695Z,2.10
2018-07-09T22:36:13.312Z,2.08
2018-07-09T22:38:42.398Z,2.10
2018-07-09T22:41:10.911Z,2.25
2018-07-09T22:43:50.472Z,2.47
2018-07-09T22:46:19.565Z,2.05
2018-07-09T22:48:48.075Z,2.45
2018-07-09T22:51:16.495Z,2.10
2018-07-09T22:53:44.854Z,1.92
2018-07-09T22:56:14.273Z,2.12
2018-07-09T22:58:43.528Z,2.17
2018-07-09T23:01:11.985Z,2.33
2018-07-09T23:03:40.469Z,2.00
2018-07-09T23:06:08.937Z,1.90
2018-07-09T23:08:37.456Z,2.67
2018-07-09T23:11:17.451Z,2.22
2018-07-09T23:14:57.405Z,1.90
2018-07-09T23:17:37.057Z,1.77
2018-07-09T23:22:24.485Z,2.30
